Istanbul, Turkey

6:08 AM EEST on August 29, 2014 (GMT +0300)
Ataturk | Change Station
CLOSE
Current Station
Airport
Location: Istanbul,
Elevation: 121 ft
Nearby Weather Stations

Elev 121 ft 40.98 °N, 28.81 °E | Updated 18 minutes ago

Clear
Clear
73 °F
Feels Like 73 °F
N
14
Wind Variable Wind from NNE

Today
High -- | Low -- °F
--% Chance of Precip.
Yesterday
High -- | Low -- °F
Precip. -- in
6:28 AM 7:42 PM
Waxing Crescent, 11% visible
Pressure 30.01 in
Visibility -9999.0 miles
Clouds
Dew Point 59 °F
Humidity 61%
Rainfall 0.00 in
Snow Depth Not available.
UV Not available.
Pollen Not available.
Air Quality Not available.
Flu Activity Not available.
METAR LTBA 290250Z 03012KT CAVOK 23/15 Q1016 NOSIG RMK RWY17L 04012KT 010V070 RWY05 04013KT 360V060 RWY23 04014G24KT 010V070

More Conditions Fewer Conditions

Pressure 30.01 in
Visibility -9999.0 miles
Clouds
Dew Point 59 °F
Humidity 61%
Rainfall 0.00 in
Snow Depth Not available.
UV Not available.
Pollen Not available.
Air Quality Not available.
Flu Activity Not available.
METAR LTBA 290250Z 03012KT CAVOK 23/15 Q1016 NOSIG RMK RWY17L 04012KT 010V070 RWY05 04013KT 360V060 RWY23 04014G24KT 010V070

More Conditions Fewer Conditions

10-Day Weather Forecast

Almanac

Astronomy

Aug. 29, 2014 Rise Set
Actual Time 6:28 AM EEST 7:42 PM EEST
Civil Twilight 5:59 AM EEST 8:10 PM EEST
Nautical Twilight 5:25 AM EEST 8:44 PM EEST
Astronomical Twilight 4:49 AM EEST 9:20 PM EEST
Moon 10:00 AM EEST 9:26 PM EEST
Length of Visible Light 14h 11m
Length of Day
13h 14m
Tomorrow will be 2m 35s shorter.
Waxing Crescent, 11% of the Moon is Illuminated
Aug 28
Waxing Crescent
Sep 2
First Quarter
Sep 8
Full
Sep 15
Last Quarter
Sep 24
New

Yesterday's Extremes

Country Highs Country Lows

Community

WunderPhotos

Upload Photos

1,748,141 photos uploaded!

Nearby

Snow Depth

Not available.

Earthquake Activity

City Distance Mag. Time & Date
No recent earthquake activity has been reported nearby.
Minimum magnitude displayed is 2.5.

Coastal Water Temperatures

Place Temperature
No Stations Reporting

Nearby Weather Stations